sensor_id;sensor_type;location;lat;lon;timestamp;temperature;humidity
17489;DHT22;8861;52.644;4.734;2024-01-07T00:01:28;2.30;99.90
17489;DHT22;8861;52.644;4.734;2024-01-07T00:03:56;2.30;99.90
17489;DHT22;8861;52.644;4.734;2024-01-07T00:06:27;2.30;99.90
17489;DHT22;8861;52.644;4.734;2024-01-07T00:08:54;2.30;99.90
17489;DHT22;8861;52.644;4.734;2024-01-07T00:11:22;2.30;99.90
17489;DHT22;8861;52.644;4.734;2024-01-07T00:13:50;2.30;99.90
17489;DHT22;8861;52.644;4.734;2024-01-07T00:16:17;2.30;99.90
17489;DHT22;8861;52.644;4.734;2024-01-07T00:18:44;2.30;99.90
17489;DHT22;8861;52.644;4.734;2024-01-07T00:21:11;2.20;99.90
17489;DHT22;8861;52.644;4.734;2024-01-07T00:23:39;2.20;99.90
17489;DHT22;8861;52.644;4.734;2024-01-07T00:26:07;2.20;99.90
17489;DHT22;8861;52.644;4.734;2024-01-07T00:28:35;2.10;99.90
17489;DHT22;8861;52.644;4.734;2024-01-07T00:31:04;2.10;99.90
17489;DHT22;8861;52.644;4.734;2024-01-07T00:33:34;2.20;99.90
17489;DHT22;8861;52.644;4.734;2024-01-07T00:36:01;2.20;99.90
17489;DHT22;8861;52.644;4.734;2024-01-07T00:38:28;2.10;99.90
17489;DHT22;8861;52.644;4.734;2024-01-07T00:40:57;2.10;99.90
17489;DHT22;8861;52.644;4.734;2024-01-07T00:43:23;2.00;99.90
17489;DHT22;8861;52.644;4.734;2024-01-07T00:45:51;2.10;99.90
17489;DHT22;8861;52.644;4.734;2024-01-07T00:48:18;2.10;99.90
17489;DHT22;8861;52.644;4.734;2024-01-07T00:50:45;2.10;99.90
17489;DHT22;8861;52.644;4.734;2024-01-07T00:53:11;2.10;99.90
17489;DHT22;8861;52.644;4.734;2024-01-07T00:55:38;2.10;99.90
17489;DHT22;8861;52.644;4.734;2024-01-07T00:58:07;2.10;99.90
17489;DHT22;8861;52.644;4.734;2024-01-07T01:00:35;2.10;99.90
17489;DHT22;8861;52.644;4.734;2024-01-07T01:03:03;2.00;99.90
17489;DHT22;8861;52.644;4.734;2024-01-07T01:05:30;2.00;99.90
17489;DHT22;8861;52.644;4.734;2024-01-07T01:07:57;2.00;99.90
17489;DHT22;8861;52.644;4.734;2024-01-07T01:10:26;2.00;99.90
17489;DHT22;8861;52.644;4.734;2024-01-07T01:12:53;2.00;99.90
17489;DHT22;8861;52.644;4.734;2024-01-07T01:15:22;2.00;99.90
17489;DHT22;8861;52.644;4.734;2024-01-07T01:17:48;2.00;99.90
17489;DHT22;8861;52.644;4.734;2024-01-07T01:20:16;2.00;99.90
17489;DHT22;8861;52.644;4.734;2024-01-07T01:22:42;2.00;99.90
17489;DHT22;8861;52.644;4.734;2024-01-07T01:25:09;2.00;99.90
17489;DHT22;8861;52.644;4.734;2024-01-07T01:27:37;2.10;99.90
17489;DHT22;8861;52.644;4.734;2024-01-07T01:30:04;2.10;99.90
17489;DHT22;8861;52.644;4.734;2024-01-07T01:32:33;2.10;99.90
17489;DHT22;8861;52.644;4.734;2024-01-07T01:35:00;2.10;99.90
17489;DHT22;8861;52.644;4.734;2024-01-07T01:37:27;2.10;99.90
17489;DHT22;8861;52.644;4.734;2024-01-07T01:39:55;2.10;99.90
17489;DHT22;8861;52.644;4.734;2024-01-07T01:42:22;2.10;99.90
17489;DHT22;8861;52.644;4.734;2024-01-07T01:44:49;2.00;99.90
17489;DHT22;8861;52.644;4.734;2024-01-07T01:47:17;2.00;99.90
17489;DHT22;8861;52.644;4.734;2024-01-07T01:49:47;2.00;99.90
17489;DHT22;8861;52.644;4.734;2024-01-07T01:52:14;2.00;99.90
17489;DHT22;8861;52.644;4.734;2024-01-07T01:54:41;1.90;99.90
17489;DHT22;8861;52.644;4.734;2024-01-07T01:57:09;1.90;99.90
17489;DHT22;8861;52.644;4.734;2024-01-07T01:59:40;1.90;99.90
17489;DHT22;8861;52.644;4.734;2024-01-07T02:02:09;1.90;99.90
17489;DHT22;8861;52.644;4.734;2024-01-07T02:04:37;1.90;99.90
17489;DHT22;8861;52.644;4.734;2024-01-07T02:07:06;1.90;99.90
17489;DHT22;8861;52.644;4.734;2024-01-07T02:09:33;1.90;99.90
17489;DHT22;8861;52.644;4.734;2024-01-07T02:12:00;1.90;99.90
17489;DHT22;8861;52.644;4.734;2024-01-07T02:14:27;1.90;99.90
17489;DHT22;8861;52.644;4.734;2024-01-07T02:16:55;1.90;99.90
17489;DHT22;8861;52.644;4.734;2024-01-07T02:19:23;1.90;99.90
17489;DHT22;8861;52.644;4.734;2024-01-07T02:21:50;1.90;99.90
17489;DHT22;8861;52.644;4.734;2024-01-07T02:24:19;1.90;99.90
17489;DHT22;8861;52.644;4.734;2024-01-07T02:26:46;1.80;99.90
17489;DHT22;8861;52.644;4.734;2024-01-07T02:29:13;1.80;99.90
17489;DHT22;8861;52.644;4.734;2024-01-07T02:31:41;1.80;99.90
17489;DHT22;8861;52.644;4.734;2024-01-07T02:34:09;1.80;99.90
17489;DHT22;8861;52.644;4.734;2024-01-07T02:36:36;1.70;99.90
17489;DHT22;8861;52.644;4.734;2024-01-07T02:39:03;1.70;99.90
17489;DHT22;8861;52.644;4.734;2024-01-07T02:41:32;1.80;99.90
17489;DHT22;8861;52.644;4.734;2024-01-07T02:43:59;1.80;99.90
17489;DHT22;8861;52.644;4.734;2024-01-07T02:46:26;1.80;99.90
17489;DHT22;8861;52.644;4.734;2024-01-07T02:48:53;1.80;99.90
17489;DHT22;8861;52.644;4.734;2024-01-07T02:51:20;1.70;99.90
17489;DHT22;8861;52.644;4.734;2024-01-07T02:53:47;1.70;99.90
17489;DHT22;8861;52.644;4.734;2024-01-07T02:56:13;1.70;99.90
17489;DHT22;8861;52.644;4.734;2024-01-07T02:58:42;1.70;99.90
17489;DHT22;8861;52.644;4.734;2024-01-07T03:01:10;1.70;99.90
17489;DHT22;8861;52.644;4.734;2024-01-07T03:03:37;1.60;99.90
17489;DHT22;8861;52.644;4.734;2024-01-07T03:06:04;1.60;99.90
17489;DHT22;8861;52.644;4.734;2024-01-07T03:08:31;1.50;99.90
17489;DHT22;8861;52.644;4.734;2024-01-07T03:11:03;1.50;99.90
17489;DHT22;8861;52.644;4.734;2024-01-07T03:13:30;1.40;99.90
17489;DHT22;8861;52.644;4.734;2024-01-07T03:15:59;1.40;99.90
17489;DHT22;8861;52.644;4.734;2024-01-07T03:18:27;1.40;99.90
17489;DHT22;8861;52.644;4.734;2024-01-07T03:20:54;1.40;99.90
17489;DHT22;8861;52.644;4.734;2024-01-07T03:23:21;1.50;99.90
17489;DHT22;8861;52.644;4.734;2024-01-07T03:25:48;1.50;99.90
17489;DHT22;8861;52.644;4.734;2024-01-07T03:28:15;1.50;99.90
17489;DHT22;8861;52.644;4.734;2024-01-07T03:30:42;1.60;99.90
17489;DHT22;8861;52.644;4.734;2024-01-07T03:33:11;1.70;99.90
17489;DHT22;8861;52.644;4.734;2024-01-07T03:35:38;1.70;99.90
17489;DHT22;8861;52.644;4.734;2024-01-07T03:38:05;1.80;99.90
17489;DHT22;8861;52.644;4.734;2024-01-07T03:40:32;1.80;99.90
17489;DHT22;8861;52.644;4.734;2024-01-07T03:42:59;1.90;99.90
17489;DHT22;8861;52.644;4.734;2024-01-07T03:45:26;1.90;99.90
17489;DHT22;8861;52.644;4.734;2024-01-07T03:47:53;1.90;99.90
17489;DHT22;8861;52.644;4.734;2024-01-07T03:50:21;1.90;99.90
17489;DHT22;8861;52.644;4.734;2024-01-07T03:52:48;1.90;99.90
17489;DHT22;8861;52.644;4.734;2024-01-07T03:55:15;1.90;99.90
17489;DHT22;8861;52.644;4.734;2024-01-07T03:57:43;1.90;99.90
17489;DHT22;8861;52.644;4.734;2024-01-07T04:00:11;1.90;99.90
17489;DHT22;8861;52.644;4.734;2024-01-07T04:02:38;2.00;99.90
17489;DHT22;8861;52.644;4.734;2024-01-07T04:05:05;2.00;99.90
17489;DHT22;8861;52.644;4.734;2024-01-07T04:07:34;1.90;99.90
17489;DHT22;8861;52.644;4.734;2024-01-07T04:10:01;1.90;99.90
17489;DHT22;8861;52.644;4.734;2024-01-07T04:12:28;1.90;99.90
17489;DHT22;8861;52.644;4.734;2024-01-07T04:14:55;2.00;99.90
17489;DHT22;8861;52.644;4.734;2024-01-07T04:17:23;2.00;99.90
17489;DHT22;8861;52.644;4.734;2024-01-07T04:19:51;2.00;99.90
17489;DHT22;8861;52.644;4.734;2024-01-07T04:22:18;2.00;99.90
17489;DHT22;8861;52.644;4.734;2024-01-07T04:24:46;1.90;99.90
17489;DHT22;8861;52.644;4.734;2024-01-07T04:27:13;2.00;99.90
17489;DHT22;8861;52.644;4.734;2024-01-07T04:29:40;2.00;99.90
17489;DHT22;8861;52.644;4.734;2024-01-07T04:32:07;2.00;99.90
17489;DHT22;8861;52.644;4.734;2024-01-07T04:34:34;2.00;99.90
17489;DHT22;8861;52.644;4.734;2024-01-07T04:37:02;2.00;99.90
17489;DHT22;8861;52.644;4.734;2024-01-07T04:39:29;2.00;99.90
17489;DHT22;8861;52.644;4.734;2024-01-07T04:42:00;1.90;99.90
17489;DHT22;8861;52.644;4.734;2024-01-07T04:44:28;1.90;99.90
17489;DHT22;8861;52.644;4.734;2024-01-07T04:46:55;1.90;99.90
17489;DHT22;8861;52.644;4.734;2024-01-07T04:49:22;1.90;99.90
17489;DHT22;8861;52.644;4.734;2024-01-07T04:51:49;1.90;99.90
17489;DHT22;8861;52.644;4.734;2024-01-07T04:54:15;1.90;99.90
17489;DHT22;8861;52.644;4.734;2024-01-07T04:56:44;1.90;99.90
17489;DHT22;8861;52.644;4.734;2024-01-07T04:59:12;1.90;99.90
17489;DHT22;8861;52.644;4.734;2024-01-07T05:01:39;1.90;99.90
17489;DHT22;8861;52.644;4.734;2024-01-07T05:04:06;2.00;99.90
17489;DHT22;8861;52.644;4.734;2024-01-07T05:06:34;2.00;99.90
17489;DHT22;8861;52.644;4.734;2024-01-07T05:09:01;2.00;99.90
17489;DHT22;8861;52.644;4.734;2024-01-07T05:11:28;1.90;99.90
17489;DHT22;8861;52.644;4.734;2024-01-07T05:13:55;1.90;99.90
17489;DHT22;8861;52.644;4.734;2024-01-07T05:16:23;1.90;99.90
17489;DHT22;8861;52.644;4.734;2024-01-07T05:18:50;1.90;99.90
17489;DHT22;8861;52.644;4.734;2024-01-07T05:21:18;1.90;99.90
17489;DHT22;8861;52.644;4.734;2024-01-07T05:23:45;1.90;99.90
17489;DHT22;8861;52.644;4.734;2024-01-07T05:26:12;1.90;99.90
17489;DHT22;8861;52.644;4.734;2024-01-07T05:28:39;1.90;99.90
17489;DHT22;8861;52.644;4.734;2024-01-07T05:31:14;1.90;99.90
17489;DHT22;8861;52.644;4.734;2024-01-07T05:33:45;1.90;99.90
17489;DHT22;8861;52.644;4.734;2024-01-07T05:36:12;1.90;99.90
17489;DHT22;8861;52.644;4.734;2024-01-07T05:38:41;1.90;99.90
17489;DHT22;8861;52.644;4.734;2024-01-07T05:41:08;1.90;99.90
17489;DHT22;8861;52.644;4.734;2024-01-07T05:43:36;1.80;99.90
17489;DHT22;8861;52.644;4.734;2024-01-07T05:46:03;1.80;99.90
17489;DHT22;8861;52.644;4.734;2024-01-07T05:48:42;1.90;99.90
17489;DHT22;8861;52.644;4.734;2024-01-07T05:51:10;1.90;99.90
17489;DHT22;8861;52.644;4.734;2024-01-07T05:53:38;1.90;99.90
17489;DHT22;8861;52.644;4.734;2024-01-07T05:56:05;1.90;99.90
17489;DHT22;8861;52.644;4.734;2024-01-07T05:58:32;1.90;99.90
17489;DHT22;8861;52.644;4.734;2024-01-07T06:00:59;1.90;99.90
17489;DHT22;8861;52.644;4.734;2024-01-07T06:03:27;1.90;99.90
17489;DHT22;8861;52.644;4.734;2024-01-07T06:05:57;1.90;99.90
17489;DHT22;8861;52.644;4.734;2024-01-07T06:08:24;1.80;99.90
17489;DHT22;8861;52.644;4.734;2024-01-07T06:10:51;1.90;99.90
17489;DHT22;8861;52.644;4.734;2024-01-07T06:13:18;1.90;99.90
17489;DHT22;8861;52.644;4.734;2024-01-07T06:15:45;1.90;99.90
17489;DHT22;8861;52.644;4.734;2024-01-07T06:18:12;2.00;99.90
17489;DHT22;8861;52.644;4.734;2024-01-07T06:20:39;2.00;99.90
17489;DHT22;8861;52.644;4.734;2024-01-07T06:23:07;1.90;99.90
17489;DHT22;8861;52.644;4.734;2024-01-07T06:25:34;1.90;99.90
17489;DHT22;8861;52.644;4.734;2024-01-07T06:28:02;2.00;99.90
17489;DHT22;8861;52.644;4.734;2024-01-07T06:30:29;1.90;99.90
17489;DHT22;8861;52.644;4.734;2024-01-07T06:32:56;1.90;99.90
17489;DHT22;8861;52.644;4.734;2024-01-07T06:35:23;1.90;99.90
17489;DHT22;8861;52.644;4.734;2024-01-07T06:37:50;1.90;99.90
17489;DHT22;8861;52.644;4.734;2024-01-07T06:40:18;1.90;99.90
17489;DHT22;8861;52.644;4.734;2024-01-07T06:42:46;1.90;99.90
17489;DHT22;8861;52.644;4.734;2024-01-07T06:45:14;1.90;99.90
17489;DHT22;8861;52.644;4.734;2024-01-07T06:47:41;1.90;99.90
17489;DHT22;8861;52.644;4.734;2024-01-07T06:50:09;1.90;99.90
17489;DHT22;8861;52.644;4.734;2024-01-07T06:52:36;1.90;99.90
17489;DHT22;8861;52.644;4.734;2024-01-07T06:55:04;1.80;99.90
17489;DHT22;8861;52.644;4.734;2024-01-07T06:57:33;1.80;99.90
17489;DHT22;8861;52.644;4.734;2024-01-07T07:00:00;1.80;99.90
17489;DHT22;8861;52.644;4.734;2024-01-07T07:02:28;1.80;99.90
17489;DHT22;8861;52.644;4.734;2024-01-07T07:04:55;1.80;99.90
17489;DHT22;8861;52.644;4.734;2024-01-07T07:07:22;1.80;99.90
17489;DHT22;8861;52.644;4.734;2024-01-07T07:09:49;1.80;99.90
17489;DHT22;8861;52.644;4.734;2024-01-07T07:12:17;1.80;99.90
17489;DHT22;8861;52.644;4.734;2024-01-07T07:14:46;1.80;99.90
17489;DHT22;8861;52.644;4.734;2024-01-07T07:17:13;1.70;99.90
17489;DHT22;8861;52.644;4.734;2024-01-07T07:19:44;1.70;99.90
17489;DHT22;8861;52.644;4.734;2024-01-07T07:22:11;1.70;99.90
17489;DHT22;8861;52.644;4.734;2024-01-07T07:24:40;1.70;99.90
17489;DHT22;8861;52.644;4.734;2024-01-07T07:27:08;1.70;99.90
17489;DHT22;8861;52.644;4.734;2024-01-07T07:29:35;1.70;99.90
17489;DHT22;8861;52.644;4.734;2024-01-07T07:32:04;1.70;99.90
17489;DHT22;8861;52.644;4.734;2024-01-07T07:34:32;1.70;99.90
17489;DHT22;8861;52.644;4.734;2024-01-07T07:36:59;1.70;99.90
17489;DHT22;8861;52.644;4.734;2024-01-07T07:39:26;1.60;99.90
17489;DHT22;8861;52.644;4.734;2024-01-07T07:41:54;1.70;99.90
17489;DHT22;8861;52.644;4.734;2024-01-07T07:44:21;1.60;99.90
17489;DHT22;8861;52.644;4.734;2024-01-07T07:46:48;1.60;99.90
17489;DHT22;8861;52.644;4.734;2024-01-07T07:49:17;1.60;99.90
17489;DHT22;8861;52.644;4.734;2024-01-07T07:51:44;1.60;99.90
17489;DHT22;8861;52.644;4.734;2024-01-07T07:54:11;1.60;99.90
17489;DHT22;8861;52.644;4.734;2024-01-07T07:56:38;1.70;99.90
17489;DHT22;8861;52.644;4.734;2024-01-07T07:59:05;1.70;99.90
17489;DHT22;8861;52.644;4.734;2024-01-07T08:01:34;1.70;99.90
17489;DHT22;8861;52.644;4.734;2024-01-07T08:04:02;1.70;99.90
17489;DHT22;8861;52.644;4.734;2024-01-07T08:06:32;1.70;99.90
17489;DHT22;8861;52.644;4.734;2024-01-07T08:08:59;1.70;99.90
17489;DHT22;8861;52.644;4.734;2024-01-07T08:11:26;1.70;99.90
17489;DHT22;8861;52.644;4.734;2024-01-07T08:13:55;1.60;99.90
17489;DHT22;8861;52.644;4.734;2024-01-07T08:16:23;1.70;99.90
17489;DHT22;8861;52.644;4.734;2024-01-07T08:18:50;1.70;99.90
17489;DHT22;8861;52.644;4.734;2024-01-07T08:21:17;1.70;99.90
17489;DHT22;8861;52.644;4.734;2024-01-07T08:23:46;1.70;99.90
17489;DHT22;8861;52.644;4.734;2024-01-07T08:26:18;1.70;99.90
17489;DHT22;8861;52.644;4.734;2024-01-07T08:28:45;1.80;99.90
17489;DHT22;8861;52.644;4.734;2024-01-07T08:31:11;1.70;99.90
17489;DHT22;8861;52.644;4.734;2024-01-07T08:33:38;1.80;99.90
17489;DHT22;8861;52.644;4.734;2024-01-07T08:36:06;1.80;99.90
17489;DHT22;8861;52.644;4.734;2024-01-07T08:38:33;1.80;99.90
17489;DHT22;8861;52.644;4.734;2024-01-07T08:41:02;1.80;99.90
17489;DHT22;8861;52.644;4.734;2024-01-07T08:43:30;1.80;99.90
17489;DHT22;8861;52.644;4.734;2024-01-07T08:45:57;1.80;99.90
17489;DHT22;8861;52.644;4.734;2024-01-07T08:48:24;1.80;99.90
17489;DHT22;8861;52.644;4.734;2024-01-07T08:50:51;1.80;99.90
17489;DHT22;8861;52.644;4.734;2024-01-07T08:53:18;1.80;99.90
17489;DHT22;8861;52.644;4.734;2024-01-07T08:55:45;1.80;99.90
17489;DHT22;8861;52.644;4.734;2024-01-07T08:58:15;1.90;99.90
17489;DHT22;8861;52.644;4.734;2024-01-07T09:00:42;1.80;99.90
17489;DHT22;8861;52.644;4.734;2024-01-07T09:03:09;1.90;99.90
17489;DHT22;8861;52.644;4.734;2024-01-07T09:05:35;1.90;99.90
17489;DHT22;8861;52.644;4.734;2024-01-07T09:08:03;2.00;99.90
17489;DHT22;8861;52.644;4.734;2024-01-07T09:10:31;2.00;99.90
17489;DHT22;8861;52.644;4.734;2024-01-07T09:12:59;2.00;99.90
17489;DHT22;8861;52.644;4.734;2024-01-07T09:15:27;2.10;99.90
17489;DHT22;8861;52.644;4.734;2024-01-07T09:17:54;2.10;99.90
17489;DHT22;8861;52.644;4.734;2024-01-07T09:20:21;2.00;99.90
17489;DHT22;8861;52.644;4.734;2024-01-07T09:22:48;2.00;99.90
17489;DHT22;8861;52.644;4.734;2024-01-07T09:25:15;2.00;99.90
17489;DHT22;8861;52.644;4.734;2024-01-07T09:27:42;2.00;99.90
17489;DHT22;8861;52.644;4.734;2024-01-07T09:30:11;2.10;99.90
17489;DHT22;8861;52.644;4.734;2024-01-07T09:32:41;2.10;99.90
17489;DHT22;8861;52.644;4.734;2024-01-07T09:35:08;2.10;99.90
17489;DHT22;8861;52.644;4.734;2024-01-07T09:37:35;2.10;99.90
17489;DHT22;8861;52.644;4.734;2024-01-07T09:40:03;2.10;99.90
17489;DHT22;8861;52.644;4.734;2024-01-07T09:42:31;2.20;99.90
17489;DHT22;8861;52.644;4.734;2024-01-07T09:45:02;2.20;99.90
17489;DHT22;8861;52.644;4.734;2024-01-07T09:47:31;2.20;99.90
17489;DHT22;8861;52.644;4.734;2024-01-07T09:50:00;2.10;99.90
17489;DHT22;8861;52.644;4.734;2024-01-07T09:52:27;2.10;99.90
17489;DHT22;8861;52.644;4.734;2024-01-07T09:54:58;1.90;99.90
17489;DHT22;8861;52.644;4.734;2024-01-07T09:57:26;1.80;99.90
17489;DHT22;8861;52.644;4.734;2024-01-07T09:59:53;1.70;99.90
17489;DHT22;8861;52.644;4.734;2024-01-07T10:02:20;1.70;99.90
17489;DHT22;8861;52.644;4.734;2024-01-07T10:04:49;1.70;99.90
17489;DHT22;8861;52.644;4.734;2024-01-07T10:07:17;1.80;99.90
17489;DHT22;8861;52.644;4.734;2024-01-07T10:09:44;1.80;99.90
17489;DHT22;8861;52.644;4.734;2024-01-07T10:12:12;1.80;99.90
17489;DHT22;8861;52.644;4.734;2024-01-07T10:14:39;1.90;99.90
17489;DHT22;8861;52.644;4.734;2024-01-07T10:17:14;1.80;99.90
17489;DHT22;8861;52.644;4.734;2024-01-07T10:19:43;1.90;99.90
17489;DHT22;8861;52.644;4.734;2024-01-07T10:22:12;1.90;99.90
17489;DHT22;8861;52.644;4.734;2024-01-07T10:24:41;2.00;99.90
17489;DHT22;8861;52.644;4.734;2024-01-07T10:27:09;2.00;99.90
17489;DHT22;8861;52.644;4.734;2024-01-07T10:29:36;2.10;99.90
17489;DHT22;8861;52.644;4.734;2024-01-07T10:32:04;2.10;99.90
17489;DHT22;8861;52.644;4.734;2024-01-07T10:34:32;2.00;99.90
17489;DHT22;8861;52.644;4.734;2024-01-07T10:37:01;2.00;99.90
17489;DHT22;8861;52.644;4.734;2024-01-07T10:39:29;2.00;99.90
17489;DHT22;8861;52.644;4.734;2024-01-07T10:41:58;2.00;99.90
17489;DHT22;8861;52.644;4.734;2024-01-07T10:44:27;2.00;99.90
17489;DHT22;8861;52.644;4.734;2024-01-07T10:46:54;2.00;99.90
17489;DHT22;8861;52.644;4.734;2024-01-07T10:49:23;2.00;99.90
17489;DHT22;8861;52.644;4.734;2024-01-07T10:51:56;2.00;99.90
17489;DHT22;8861;52.644;4.734;2024-01-07T10:54:29;1.80;99.90
17489;DHT22;8861;52.644;4.734;2024-01-07T10:56:59;1.70;99.90
17489;DHT22;8861;52.644;4.734;2024-01-07T10:59:32;1.60;99.90
17489;DHT22;8861;52.644;4.734;2024-01-07T11:02:00;1.60;99.90
17489;DHT22;8861;52.644;4.734;2024-01-07T11:04:36;1.50;99.90
17489;DHT22;8861;52.644;4.734;2024-01-07T11:07:12;1.60;99.90
17489;DHT22;8861;52.644;4.734;2024-01-07T11:09:48;1.60;99.90
17489;DHT22;8861;52.644;4.734;2024-01-07T11:12:21;1.70;99.90
17489;DHT22;8861;52.644;4.734;2024-01-07T11:14:48;1.70;99.90
17489;DHT22;8861;52.644;4.734;2024-01-07T11:17:40;1.70;99.90
17489;DHT22;8861;52.644;4.734;2024-01-07T11:20:19;1.70;99.90
17489;DHT22;8861;52.644;4.734;2024-01-07T11:22:47;1.80;99.90
17489;DHT22;8861;52.644;4.734;2024-01-07T11:25:31;1.80;99.90
17489;DHT22;8861;52.644;4.734;2024-01-07T11:28:01;1.80;99.90
17489;DHT22;8861;52.644;4.734;2024-01-07T11:30:28;1.80;99.90
17489;DHT22;8861;52.644;4.734;2024-01-07T11:32:59;1.80;99.90
17489;DHT22;8861;52.644;4.734;2024-01-07T11:35:53;1.80;99.90
17489;DHT22;8861;52.644;4.734;2024-01-07T11:38:22;1.80;99.90
17489;DHT22;8861;52.644;4.734;2024-01-07T11:40:49;1.90;99.90
17489;DHT22;8861;52.644;4.734;2024-01-07T11:43:18;1.90;99.90
17489;DHT22;8861;52.644;4.734;2024-01-07T11:45:45;2.00;99.90
17489;DHT22;8861;52.644;4.734;2024-01-07T11:48:13;2.00;99.90
17489;DHT22;8861;52.644;4.734;2024-01-07T11:50:41;2.10;99.90
17489;DHT22;8861;52.644;4.734;2024-01-07T11:53:08;2.10;99.90
17489;DHT22;8861;52.644;4.734;2024-01-07T11:55:36;2.10;99.90
17489;DHT22;8861;52.644;4.734;2024-01-07T11:58:03;2.20;99.90
17489;DHT22;8861;52.644;4.734;2024-01-07T12:00:35;2.30;99.90
17489;DHT22;8861;52.644;4.734;2024-01-07T12:03:02;2.40;99.90
17489;DHT22;8861;52.644;4.734;2024-01-07T12:05:30;2.40;99.90
17489;DHT22;8861;52.644;4.734;2024-01-07T12:07:57;2.50;99.90
17489;DHT22;8861;52.644;4.734;2024-01-07T12:10:26;2.60;99.90
17489;DHT22;8861;52.644;4.734;2024-01-07T12:12:53;2.60;99.90
17489;DHT22;8861;52.644;4.734;2024-01-07T12:15:20;2.60;99.90
17489;DHT22;8861;52.644;4.734;2024-01-07T12:17:57;2.70;99.90
17489;DHT22;8861;52.644;4.734;2024-01-07T12:20:25;2.70;99.90
17489;DHT22;8861;52.644;4.734;2024-01-07T12:22:52;2.70;99.90
17489;DHT22;8861;52.644;4.734;2024-01-07T12:25:22;2.70;99.90
17489;DHT22;8861;52.644;4.734;2024-01-07T12:27:50;2.60;99.90
17489;DHT22;8861;52.644;4.734;2024-01-07T12:30:19;2.50;99.90
17489;DHT22;8861;52.644;4.734;2024-01-07T12:32:47;2.50;99.90
17489;DHT22;8861;52.644;4.734;2024-01-07T12:35:16;2.50;99.90
17489;DHT22;8861;52.644;4.734;2024-01-07T12:37:44;2.50;99.90
17489;DHT22;8861;52.644;4.734;2024-01-07T12:40:13;2.50;99.90
17489;DHT22;8861;52.644;4.734;2024-01-07T12:42:40;2.60;99.90
17489;DHT22;8861;52.644;4.734;2024-01-07T12:45:11;2.70;99.90
17489;DHT22;8861;52.644;4.734;2024-01-07T12:47:39;2.90;99.90
17489;DHT22;8861;52.644;4.734;2024-01-07T12:50:07;3.00;99.90
17489;DHT22;8861;52.644;4.734;2024-01-07T12:52:37;3.00;99.90
17489;DHT22;8861;52.644;4.734;2024-01-07T12:55:05;3.10;99.90
17489;DHT22;8861;52.644;4.734;2024-01-07T12:57:32;3.20;99.90
17489;DHT22;8861;52.644;4.734;2024-01-07T13:00:00;3.30;99.90
17489;DHT22;8861;52.644;4.734;2024-01-07T13:02:27;3.30;99.90
17489;DHT22;8861;52.644;4.734;2024-01-07T13:04:54;3.30;99.90
17489;DHT22;8861;52.644;4.734;2024-01-07T13:07:21;3.40;99.90
17489;DHT22;8861;52.644;4.734;2024-01-07T13:09:50;3.40;99.90
17489;DHT22;8861;52.644;4.734;2024-01-07T13:12:17;3.30;99.90
17489;DHT22;8861;52.644;4.734;2024-01-07T13:14:44;3.40;99.90
17489;DHT22;8861;52.644;4.734;2024-01-07T13:17:12;3.40;99.90
17489;DHT22;8861;52.644;4.734;2024-01-07T13:19:39;3.40;99.90
17489;DHT22;8861;52.644;4.734;2024-01-07T13:22:07;3.30;99.90
17489;DHT22;8861;52.644;4.734;2024-01-07T13:24:35;3.30;99.90
17489;DHT22;8861;52.644;4.734;2024-01-07T13:27:04;3.10;99.90
17489;DHT22;8861;52.644;4.734;2024-01-07T13:29:31;3.00;99.90
17489;DHT22;8861;52.644;4.734;2024-01-07T13:31:59;2.90;99.90
17489;DHT22;8861;52.644;4.734;2024-01-07T13:34:26;2.80;99.90
17489;DHT22;8861;52.644;4.734;2024-01-07T13:36:53;2.70;99.90
17489;DHT22;8861;52.644;4.734;2024-01-07T13:39:21;2.50;99.90
17489;DHT22;8861;52.644;4.734;2024-01-07T13:41:48;2.50;99.90
17489;DHT22;8861;52.644;4.734;2024-01-07T13:44:17;2.40;99.90
17489;DHT22;8861;52.644;4.734;2024-01-07T13:46:45;2.30;99.90
17489;DHT22;8861;52.644;4.734;2024-01-07T13:49:12;2.30;99.90
17489;DHT22;8861;52.644;4.734;2024-01-07T13:51:40;2.30;99.90
17489;DHT22;8861;52.644;4.734;2024-01-07T13:54:07;2.30;99.90
17489;DHT22;8861;52.644;4.734;2024-01-07T13:56:36;2.30;99.90
17489;DHT22;8861;52.644;4.734;2024-01-07T13:59:06;2.40;99.90
17489;DHT22;8861;52.644;4.734;2024-01-07T14:01:36;2.40;99.90
17489;DHT22;8861;52.644;4.734;2024-01-07T14:04:03;2.50;99.90
17489;DHT22;8861;52.644;4.734;2024-01-07T14:06:30;2.50;99.90
17489;DHT22;8861;52.644;4.734;2024-01-07T14:08:58;2.50;99.90
17489;DHT22;8861;52.644;4.734;2024-01-07T14:11:25;2.50;99.90
17489;DHT22;8861;52.644;4.734;2024-01-07T14:13:53;2.40;99.90
17489;DHT22;8861;52.644;4.734;2024-01-07T14:16:20;2.40;99.90
17489;DHT22;8861;52.644;4.734;2024-01-07T14:18:49;2.30;99.90
17489;DHT22;8861;52.644;4.734;2024-01-07T14:21:16;2.20;99.90
17489;DHT22;8861;52.644;4.734;2024-01-07T14:23:43;2.20;99.90
17489;DHT22;8861;52.644;4.734;2024-01-07T14:26:10;2.10;99.90
17489;DHT22;8861;52.644;4.734;2024-01-07T14:28:37;2.00;99.90
17489;DHT22;8861;52.644;4.734;2024-01-07T14:31:04;2.00;99.90
17489;DHT22;8861;52.644;4.734;2024-01-07T14:33:32;2.00;99.90
17489;DHT22;8861;52.644;4.734;2024-01-07T14:36:02;1.90;99.90
17489;DHT22;8861;52.644;4.734;2024-01-07T14:38:29;1.90;99.90
17489;DHT22;8861;52.644;4.734;2024-01-07T14:40:56;1.80;99.90
17489;DHT22;8861;52.644;4.734;2024-01-07T14:43:24;1.70;99.90
17489;DHT22;8861;52.644;4.734;2024-01-07T14:45:51;1.70;99.90
17489;DHT22;8861;52.644;4.734;2024-01-07T14:48:18;1.70;99.90
17489;DHT22;8861;52.644;4.734;2024-01-07T14:50:45;1.60;99.90
17489;DHT22;8861;52.644;4.734;2024-01-07T14:53:14;1.60;99.90
17489;DHT22;8861;52.644;4.734;2024-01-07T14:55:42;1.60;99.90
17489;DHT22;8861;52.644;4.734;2024-01-07T14:58:09;1.50;99.90
17489;DHT22;8861;52.644;4.734;2024-01-07T15:00:36;1.50;99.90
17489;DHT22;8861;52.644;4.734;2024-01-07T15:03:03;1.50;99.90
17489;DHT22;8861;52.644;4.734;2024-01-07T15:05:30;1.40;99.90
17489;DHT22;8861;52.644;4.734;2024-01-07T15:07:58;1.40;99.90
17489;DHT22;8861;52.644;4.734;2024-01-07T15:10:27;1.40;99.90
17489;DHT22;8861;52.644;4.734;2024-01-07T15:12:54;1.40;99.90
17489;DHT22;8861;52.644;4.734;2024-01-07T15:15:21;1.30;99.90
17489;DHT22;8861;52.644;4.734;2024-01-07T15:17:50;1.30;99.90
17489;DHT22;8861;52.644;4.734;2024-01-07T15:20:17;1.30;99.90
17489;DHT22;8861;52.644;4.734;2024-01-07T15:22:44;1.20;99.90
17489;DHT22;8861;52.644;4.734;2024-01-07T15:25:12;1.20;99.90
17489;DHT22;8861;52.644;4.734;2024-01-07T15:27:41;1.20;99.90
17489;DHT22;8861;52.644;4.734;2024-01-07T15:30:08;1.20;99.90
17489;DHT22;8861;52.644;4.734;2024-01-07T15:32:35;1.10;99.90
17489;DHT22;8861;52.644;4.734;2024-01-07T15:35:04;1.10;99.90
17489;DHT22;8861;52.644;4.734;2024-01-07T15:37:31;1.10;99.90
17489;DHT22;8861;52.644;4.734;2024-01-07T15:39:58;1.00;99.90
17489;DHT22;8861;52.644;4.734;2024-01-07T15:42:25;1.00;99.90
17489;DHT22;8861;52.644;4.734;2024-01-07T15:44:56;1.00;99.90
17489;DHT22;8861;52.644;4.734;2024-01-07T15:47:23;0.90;99.90
17489;DHT22;8861;52.644;4.734;2024-01-07T15:49:50;0.90;99.90
17489;DHT22;8861;52.644;4.734;2024-01-07T15:52:17;0.80;99.90
17489;DHT22;8861;52.644;4.734;2024-01-07T15:54:44;0.80;99.90
17489;DHT22;8861;52.644;4.734;2024-01-07T15:57:13;0.80;99.90
17489;DHT22;8861;52.644;4.734;2024-01-07T15:59:41;0.70;99.90
17489;DHT22;8861;52.644;4.734;2024-01-07T16:02:10;0.70;99.90
17489;DHT22;8861;52.644;4.734;2024-01-07T16:04:37;0.70;99.90
17489;DHT22;8861;52.644;4.734;2024-01-07T16:07:04;0.70;99.90